Anderlues, Belgium
Current Conditions -  °F | °C
As of 1:50 PM on Saturday 25 Oct 2014 (Local Time) from EBCI Reporting Station
Light Rain Light Rain  
Wind Chill: 54°   Ceiling: 500
Heat Index: 54°   Visibility: 1.2mi
Dew Point: 54°   Wind: 9mph
Humidity: 100%   Direction: 240°WSW
Pressure: 30.12"   Gusts: NA
Location:  50.41°N, 4.27°E
Report Text: EBCI 251150Z 24008KT 2000 -RADZ BR SCT004 BKN005 12/12 Q1020 NOSIG
Loading
Personal Weather Stations






























Interactive Weather Map
Tropical Storm Tracking
New forecast layout! Learn more

10-Day Weather Forecast

Advertisements
Track Severe Weather on mobile